Terminal Aerodrome Forecast
Issued by NWS

Home | Current Version | Previous Version | Text Only | Print | Product List | Glossary On
Versions: 1 2 3 4 5 6 7 8 9 10 11 12 13 14
000
FTUS42 TJSJ 210535
TAFJSJ
TAF
TJSJ 210535Z 2106/2206 10005KT P6SM FEW060
     FM211300 08012KT P6SM FEW030 SCT050
     FM212300 11005KT P6SM SCT025=

USA.gov is the U.S. government's official web portal to all federal, state and local government web resources and services.